sensor_id;sensor_type;location;lat;lon;timestamp;pressure;altitude;pressure_sealevel;temperature;humidity
23953;BME280;12163;49.316;6.092;2023-02-26T00:00:09;99226.84;;;1.57;56.39
23953;BME280;12163;49.316;6.092;2023-02-26T00:02:41;99224.44;;;1.56;56.52
23953;BME280;12163;49.316;6.092;2023-02-26T00:05:08;99226.97;;;1.51;56.56
23953;BME280;12163;49.316;6.092;2023-02-26T00:07:35;99234.25;;;1.44;56.52
23953;BME280;12163;49.316;6.092;2023-02-26T00:10:02;99229.06;;;1.37;56.83
23953;BME280;12163;49.316;6.092;2023-02-26T00:12:30;99229.75;;;1.33;56.96
23953;BME280;12163;49.316;6.092;2023-02-26T00:14:58;99230.38;;;1.35;57.11
23953;BME280;12163;49.316;6.092;2023-02-26T00:20:40;99225.63;;;1.37;57.44
23953;BME280;12163;49.316;6.092;2023-02-26T00:23:12;99232.06;;;1.41;57.56
23953;BME280;12163;49.316;6.092;2023-02-26T00:25:44;99243.38;;;1.48;57.38
23953;BME280;12163;49.316;6.092;2023-02-26T00:28:11;99232.28;;;1.51;57.53
23953;BME280;12163;49.316;6.092;2023-02-26T00:30:38;99230.19;;;1.53;57.16
23953;BME280;12163;49.316;6.092;2023-02-26T00:33:05;99228.09;;;1.55;57.04
23953;BME280;12163;49.316;6.092;2023-02-26T00:35:32;99241.53;;;1.60;56.70
23953;BME280;12163;49.316;6.092;2023-02-26T00:38:05;99234.34;;;1.60;56.85
23953;BME280;12163;49.316;6.092;2023-02-26T00:40:48;99229.84;;;1.61;56.80
23953;BME280;12163;49.316;6.092;2023-02-26T00:43:17;99223.78;;;1.65;56.56
23953;BME280;12163;49.316;6.092;2023-02-26T00:49:12;99226.72;;;1.63;56.63
23953;BME280;12163;49.316;6.092;2023-02-26T00:51:57;99226.72;;;1.63;56.82
23953;BME280;12163;49.316;6.092;2023-02-26T00:54:26;99227.75;;;1.63;56.99
23953;BME280;12163;49.316;6.092;2023-02-26T00:56:54;99235.72;;;1.63;56.98
23953;BME280;12163;49.316;6.092;2023-02-26T00:59:21;99238.28;;;1.58;57.21
23953;BME280;12163;49.316;6.092;2023-02-26T01:01:48;99238.41;;;1.51;57.32
23953;BME280;12163;49.316;6.092;2023-02-26T01:04:17;99237.28;;;1.47;57.13
23953;BME280;12163;49.316;6.092;2023-02-26T01:06:47;99242.25;;;1.44;57.02
23953;BME280;12163;49.316;6.092;2023-02-26T01:09:28;99242.72;;;1.41;57.16
23953;BME280;12163;49.316;6.092;2023-02-26T01:11:58;99248.25;;;1.39;57.06
23953;BME280;12163;49.316;6.092;2023-02-26T01:14:29;99242.84;;;1.34;57.20
23953;BME280;12163;49.316;6.092;2023-02-26T01:17:22;99245.03;;;1.26;57.16
23953;BME280;12163;49.316;6.092;2023-02-26T01:22:54;99247.00;;;1.19;57.33
23953;BME280;12163;49.316;6.092;2023-02-26T01:28:09;99246.09;;;1.13;57.51
23953;BME280;12163;49.316;6.092;2023-02-26T01:30:36;99251.28;;;1.08;57.67
23953;BME280;12163;49.316;6.092;2023-02-26T01:33:31;99260.53;;;1.06;57.78
23953;BME280;12163;49.316;6.092;2023-02-26T01:41:57;99266.09;;;1.16;58.58
23953;BME280;12163;49.316;6.092;2023-02-26T01:44:39;99257.06;;;1.17;58.26
23953;BME280;12163;49.316;6.092;2023-02-26T01:47:15;99262.84;;;1.14;58.39
23953;BME280;12163;49.316;6.092;2023-02-26T01:49:43;99261.34;;;1.18;58.46
23953;BME280;12163;49.316;6.092;2023-02-26T01:55:23;99255.78;;;1.19;58.04
23953;BME280;12163;49.316;6.092;2023-02-26T01:57:53;99256.13;;;1.23;57.72
23953;BME280;12163;49.316;6.092;2023-02-26T02:00:21;99252.44;;;1.24;58.16
23953;BME280;12163;49.316;6.092;2023-02-26T02:02:49;99253.00;;;1.26;57.99
23953;BME280;12163;49.316;6.092;2023-02-26T02:05:21;99259.16;;;1.26;57.90
23953;BME280;12163;49.316;6.092;2023-02-26T02:07:51;99263.16;;;1.29;58.33
23953;BME280;12163;49.316;6.092;2023-02-26T02:10:18;99250.34;;;1.26;58.23
23953;BME280;12163;49.316;6.092;2023-02-26T02:13:00;99258.56;;;1.24;58.54
23953;BME280;12163;49.316;6.092;2023-02-26T02:15:31;99256.13;;;1.23;58.31
23953;BME280;12163;49.316;6.092;2023-02-26T02:23:46;99264.09;;;1.11;58.66
23953;BME280;12163;49.316;6.092;2023-02-26T02:26:35;99267.13;;;1.03;58.92
23953;BME280;12163;49.316;6.092;2023-02-26T02:29:30;99265.94;;;0.99;58.89
23953;BME280;12163;49.316;6.092;2023-02-26T02:32:26;99267.44;;;0.95;59.34
23953;BME280;12163;49.316;6.092;2023-02-26T02:35:01;99272.53;;;0.97;58.96
23953;BME280;12163;49.316;6.092;2023-02-26T02:37:46;99268.38;;;1.01;59.22
23953;BME280;12163;49.316;6.092;2023-02-26T02:40:35;99274.38;;;1.08;58.84
23953;BME280;12163;49.316;6.092;2023-02-26T02:43:07;99271.63;;;1.14;58.82
23953;BME280;12163;49.316;6.092;2023-02-26T02:48:28;99287.44;;;1.21;59.07
23953;BME280;12163;49.316;6.092;2023-02-26T02:51:00;99279.00;;;1.24;58.89
23953;BME280;12163;49.316;6.092;2023-02-26T02:53:46;99285.16;;;1.24;59.13
23953;BME280;12163;49.316;6.092;2023-02-26T02:56:42;99284.31;;;1.24;59.01
23953;BME280;12163;49.316;6.092;2023-02-26T03:01:44;99281.66;;;1.24;58.95
23953;BME280;12163;49.316;6.092;2023-02-26T03:04:13;99289.63;;;1.24;59.27
23953;BME280;12163;49.316;6.092;2023-02-26T03:06:41;99290.69;;;1.23;59.54
23953;BME280;12163;49.316;6.092;2023-02-26T03:09:08;99277.84;;;1.20;59.33
23953;BME280;12163;49.316;6.092;2023-02-26T03:11:36;99282.34;;;1.19;59.54
23953;BME280;12163;49.316;6.092;2023-02-26T03:14:03;99284.44;;;1.17;59.59
23953;BME280;12163;49.316;6.092;2023-02-26T03:17:06;99280.97;;;1.17;59.44
23953;BME280;12163;49.316;6.092;2023-02-26T03:22:40;99275.31;;;1.13;59.39
23953;BME280;12163;49.316;6.092;2023-02-26T03:28:33;99288.25;;;1.10;59.49
23953;BME280;12163;49.316;6.092;2023-02-26T03:31:08;99290.31;;;1.08;59.85
23953;BME280;12163;49.316;6.092;2023-02-26T03:33:53;99289.75;;;1.06;59.94
23953;BME280;12163;49.316;6.092;2023-02-26T03:36:36;99296.09;;;1.05;59.47
23953;BME280;12163;49.316;6.092;2023-02-26T03:39:09;99290.78;;;1.05;60.06
23953;BME280;12163;49.316;6.092;2023-02-26T03:44:26;99293.69;;;1.03;60.31
23953;BME280;12163;49.316;6.092;2023-02-26T03:46:58;99294.94;;;1.01;60.09
23953;BME280;12163;49.316;6.092;2023-02-26T03:49:30;99304.78;;;1.00;60.38
23953;BME280;12163;49.316;6.092;2023-02-26T03:52:00;99318.28;;;0.99;60.51
23953;BME280;12163;49.316;6.092;2023-02-26T03:54:40;99315.03;;;0.97;61.07
23953;BME280;12163;49.316;6.092;2023-02-26T03:57:08;99314.22;;;0.96;60.74
23953;BME280;12163;49.316;6.092;2023-02-26T03:59:34;99318.16;;;0.94;61.12
23953;BME280;12163;49.316;6.092;2023-02-26T04:02:05;99315.97;;;0.91;61.15
23953;BME280;12163;49.316;6.092;2023-02-26T04:04:40;99314.34;;;0.90;61.22
23953;BME280;12163;49.316;6.092;2023-02-26T04:07:12;99319.88;;;0.88;60.95
23953;BME280;12163;49.316;6.092;2023-02-26T04:09:43;99327.94;;;0.82;61.06
23953;BME280;12163;49.316;6.092;2023-02-26T04:12:10;99333.72;;;0.79;61.13
23953;BME280;12163;49.316;6.092;2023-02-26T04:14:36;99332.91;;;0.78;61.72
23953;BME280;12163;49.316;6.092;2023-02-26T04:17:03;99332.09;;;0.78;61.46
23953;BME280;12163;49.316;6.092;2023-02-26T04:19:30;99327.59;;;0.78;61.50
23953;BME280;12163;49.316;6.092;2023-02-26T04:21:57;99324.34;;;0.76;61.42
23953;BME280;12163;49.316;6.092;2023-02-26T04:24:23;99310.84;;;0.78;61.77
23953;BME280;12163;49.316;6.092;2023-02-26T04:26:50;99325.16;;;0.77;62.09
23953;BME280;12163;49.316;6.092;2023-02-26T04:29:16;99325.16;;;0.77;62.18
23953;BME280;12163;49.316;6.092;2023-02-26T04:31:43;99339.47;;;0.76;61.86
23953;BME280;12163;49.316;6.092;2023-02-26T04:34:10;99335.41;;;0.73;61.68
23953;BME280;12163;49.316;6.092;2023-02-26T04:36:36;99331.41;;;0.71;62.43
23953;BME280;12163;49.316;6.092;2023-02-26T04:39:03;99339.38;;;0.71;62.56
23953;BME280;12163;49.316;6.092;2023-02-26T04:41:30;99335.09;;;0.70;62.43
23953;BME280;12163;49.316;6.092;2023-02-26T04:43:56;99340.84;;;0.67;62.38
23953;BME280;12163;49.316;6.092;2023-02-26T04:46:23;99333.09;;;0.65;62.60
23953;BME280;12163;49.316;6.092;2023-02-26T04:48:50;99342.56;;;0.61;62.37
23953;BME280;12163;49.316;6.092;2023-02-26T04:51:17;99341.75;;;0.61;62.72
23953;BME280;12163;49.316;6.092;2023-02-26T04:53:44;99333.19;;;0.59;62.39
23953;BME280;12163;49.316;6.092;2023-02-26T04:56:10;99348.75;;;0.55;62.60
23953;BME280;12163;49.316;6.092;2023-02-26T04:58:37;99342.66;;;0.55;62.90
23953;BME280;12163;49.316;6.092;2023-02-26T05:01:04;99348.41;;;0.52;62.91
23953;BME280;12163;49.316;6.092;2023-02-26T05:03:31;99350.25;;;0.51;62.75
23953;BME280;12163;49.316;6.092;2023-02-26T05:05:58;99355.78;;;0.50;63.50
23953;BME280;12163;49.316;6.092;2023-02-26T05:08:24;99357.41;;;0.51;62.85
23953;BME280;12163;49.316;6.092;2023-02-26T05:10:51;99366.41;;;0.50;62.50
23953;BME280;12163;49.316;6.092;2023-02-26T05:13:18;99366.41;;;0.50;62.83
23953;BME280;12163;49.316;6.092;2023-02-26T05:15:45;99359.69;;;0.47;62.85
23953;BME280;12163;49.316;6.092;2023-02-26T05:18:12;99368.47;;;0.48;62.75
23953;BME280;12163;49.316;6.092;2023-02-26T05:20:38;99365.84;;;0.48;62.88
23953;BME280;12163;49.316;6.092;2023-02-26T05:23:05;99371.13;;;0.48;63.03
23953;BME280;12163;49.316;6.092;2023-02-26T05:25:32;99381.97;;;0.46;63.31
23953;BME280;12163;49.316;6.092;2023-02-26T05:27:59;99375.25;;;0.44;62.81
23953;BME280;12163;49.316;6.092;2023-02-26T05:30:25;99385.28;;;0.42;62.71
23953;BME280;12163;49.316;6.092;2023-02-26T05:32:52;99391.63;;;0.41;62.72
23953;BME280;12163;49.316;6.092;2023-02-26T05:35:20;99388.97;;;0.41;62.86
23953;BME280;12163;49.316;6.092;2023-02-26T05:37:46;99387.59;;;0.38;62.49
23953;BME280;12163;49.316;6.092;2023-02-26T05:40:14;99379.84;;;0.37;62.91
23953;BME280;12163;49.316;6.092;2023-02-26T05:42:40;99381.00;;;0.41;63.00
23953;BME280;12163;49.316;6.092;2023-02-26T05:45:07;99390.59;;;0.42;62.44
23953;BME280;12163;49.316;6.092;2023-02-26T05:47:35;99384.13;;;0.38;62.57
23953;BME280;12163;49.316;6.092;2023-02-26T05:50:03;99398.41;;;0.37;62.66
23953;BME280;12163;49.316;6.092;2023-02-26T05:52:30;99407.78;;;0.39;63.04
23953;BME280;12163;49.316;6.092;2023-02-26T05:54:57;99406.44;;;0.78;63.26
23953;BME280;12163;49.316;6.092;2023-02-26T05:57:23;99411.88;;;1.24;64.32
23953;BME280;12163;49.316;6.092;2023-02-26T05:59:50;99409.50;;;1.34;61.71
23953;BME280;12163;49.316;6.092;2023-02-26T06:02:17;99412.28;;;1.50;63.53
23953;BME280;12163;49.316;6.092;2023-02-26T06:04:44;99403.84;;;1.64;61.65
23953;BME280;12163;49.316;6.092;2023-02-26T06:07:10;99411.81;;;1.76;61.90
23953;BME280;12163;49.316;6.092;2023-02-26T06:09:37;99412.50;;;1.83;60.99
23953;BME280;12163;49.316;6.092;2023-02-26T06:12:04;99419.31;;;1.90;59.51
23953;BME280;12163;49.316;6.092;2023-02-26T06:14:32;99414.94;;;1.96;60.01
23953;BME280;12163;49.316;6.092;2023-02-26T06:16:59;99431.09;;;1.94;58.91
23953;BME280;12163;49.316;6.092;2023-02-26T06:19:25;99432.06;;;1.88;58.44
23953;BME280;12163;49.316;6.092;2023-02-26T06:21:52;99436.44;;;1.60;58.54
23953;BME280;12163;49.316;6.092;2023-02-26T06:24:19;99435.06;;;1.58;59.99
23953;BME280;12163;49.316;6.092;2023-02-26T06:26:45;99437.84;;;1.63;59.97
23953;BME280;12163;49.316;6.092;2023-02-26T06:29:12;99446.38;;;1.64;59.94
23953;BME280;12163;49.316;6.092;2023-02-26T06:31:39;99438.88;;;1.62;59.77
23953;BME280;12163;49.316;6.092;2023-02-26T06:34:05;99442.09;;;1.98;61.69
23953;BME280;12163;49.316;6.092;2023-02-26T06:36:32;99447.06;;;2.17;59.14
23953;BME280;12163;49.316;6.092;2023-02-26T06:38:58;99441.13;;;2.27;58.29
23953;BME280;12163;49.316;6.092;2023-02-26T06:41:25;99448.44;;;2.31;59.49
23953;BME280;12163;49.316;6.092;2023-02-26T06:43:52;99452.69;;;2.83;57.10
23953;BME280;12163;49.316;6.092;2023-02-26T06:46:18;99451.25;;;2.92;56.41
23953;BME280;12163;49.316;6.092;2023-02-26T06:48:45;99449.53;;;2.86;57.52
23953;BME280;12163;49.316;6.092;2023-02-26T06:51:12;99455.50;;;2.65;56.64
23953;BME280;12163;49.316;6.092;2023-02-26T06:53:38;99463.56;;;2.42;56.37
23953;BME280;12163;49.316;6.092;2023-02-26T06:56:05;99471.59;;;2.19;56.82
23953;BME280;12163;49.316;6.092;2023-02-26T06:58:32;99479.47;;;1.91;56.59
23953;BME280;12163;49.316;6.092;2023-02-26T07:00:58;99485.13;;;1.61;56.84
23953;BME280;12163;49.316;6.092;2023-02-26T07:03:25;99489.44;;;1.32;57.69
23953;BME280;12163;49.316;6.092;2023-02-26T07:05:51;99494.59;;;1.16;57.95
23953;BME280;12163;49.316;6.092;2023-02-26T07:08:18;99490.88;;;1.05;58.30
23953;BME280;12163;49.316;6.092;2023-02-26T07:10:45;99491.16;;;0.97;58.55
23953;BME280;12163;49.316;6.092;2023-02-26T07:13:15;99498.63;;;0.89;58.93
23953;BME280;12163;49.316;6.092;2023-02-26T07:15:42;99496.28;;;0.81;58.85
23953;BME280;12163;49.316;6.092;2023-02-26T07:18:11;99505.75;;;0.77;59.34
23953;BME280;12163;49.316;6.092;2023-02-26T07:20:38;99515.53;;;0.76;59.39
23953;BME280;12163;49.316;6.092;2023-02-26T07:23:05;99514.75;;;0.76;59.68
23953;BME280;12163;49.316;6.092;2023-02-26T07:25:31;99525.94;;;0.78;59.29
23953;BME280;12163;49.316;6.092;2023-02-26T07:27:58;99525.38;;;0.76;59.83
23953;BME280;12163;49.316;6.092;2023-02-26T07:30:25;99521.69;;;0.77;59.88
23953;BME280;12163;49.316;6.092;2023-02-26T07:32:53;99520.19;;;0.81;59.81
23953;BME280;12163;49.316;6.092;2023-02-26T07:35:19;99520.78;;;0.83;59.66
23953;BME280;12163;49.316;6.092;2023-02-26T07:37:46;99531.41;;;0.83;59.43
23953;BME280;12163;49.316;6.092;2023-02-26T07:40:13;99536.72;;;0.83;59.12
23953;BME280;12163;49.316;6.092;2023-02-26T07:42:40;99538.34;;;0.84;59.46
23953;BME280;12163;49.316;6.092;2023-02-26T07:45:07;99533.41;;;0.87;59.64
23953;BME280;12163;49.316;6.092;2023-02-26T07:47:34;99527.44;;;0.92;59.55
23953;BME280;12163;49.316;6.092;2023-02-26T07:50:01;99532.88;;;0.97;59.46
23953;BME280;12163;49.316;6.092;2023-02-26T07:52:27;99543.50;;;0.97;58.99
23953;BME280;12163;49.316;6.092;2023-02-26T07:54:54;99535.06;;;1.00;58.77
23953;BME280;12163;49.316;6.092;2023-02-26T07:57:21;99533.84;;;1.02;59.06
23953;BME280;12163;49.316;6.092;2023-02-26T07:59:47;99533.13;;;1.07;58.76
23953;BME280;12163;49.316;6.092;2023-02-26T08:02:14;99536.97;;;1.11;58.76
23953;BME280;12163;49.316;6.092;2023-02-26T08:04:42;99555.47;;;1.17;59.18
23953;BME280;12163;49.316;6.092;2023-02-26T08:07:08;99553.78;;;1.23;58.46
23953;BME280;12163;49.316;6.092;2023-02-26T08:09:35;99543.06;;;1.29;58.06
23953;BME280;12163;49.316;6.092;2023-02-26T08:12:02;99555.06;;;1.32;58.34
23953;BME280;12163;49.316;6.092;2023-02-26T08:14:29;99546.69;;;1.35;57.44
23953;BME280;12163;49.316;6.092;2023-02-26T08:16:56;99547.84;;;1.39;57.39
23953;BME280;12163;49.316;6.092;2023-02-26T08:19:22;99555.13;;;1.43;57.39
23953;BME280;12163;49.316;6.092;2023-02-26T08:21:49;99551.56;;;1.49;57.28
23953;BME280;12163;49.316;6.092;2023-02-26T08:24:16;99561.28;;;1.55;57.44
23953;BME280;12163;49.316;6.092;2023-02-26T08:26:43;99554.84;;;1.63;56.88
23953;BME280;12163;49.316;6.092;2023-02-26T08:29:11;99570.72;;;1.69;56.75
23953;BME280;12163;49.316;6.092;2023-02-26T08:31:38;99580.34;;;1.81;56.50
23953;BME280;12163;49.316;6.092;2023-02-26T08:34:05;99585.44;;;1.94;55.63
23953;BME280;12163;49.316;6.092;2023-02-26T08:36:31;99575.06;;;2.04;55.34
23953;BME280;12163;49.316;6.092;2023-02-26T08:38:58;99576.44;;;2.18;55.54
23953;BME280;12163;49.316;6.092;2023-02-26T08:41:25;99585.25;;;2.30;54.70
23953;BME280;12163;49.316;6.092;2023-02-26T08:43:55;99574.72;;;2.35;54.21
23953;BME280;12163;49.316;6.092;2023-02-26T08:46:21;99575.41;;;2.42;54.65
23953;BME280;12163;49.316;6.092;2023-02-26T08:48:48;99583.63;;;2.52;54.20
23953;BME280;12163;49.316;6.092;2023-02-26T08:51:15;99588.50;;;2.55;53.72
23953;BME280;12163;49.316;6.092;2023-02-26T08:53:41;99585.81;;;2.55;53.52
23953;BME280;12163;49.316;6.092;2023-02-26T08:56:10;99597.06;;;2.57;54.05
23953;BME280;12163;49.316;6.092;2023-02-26T08:58:37;99598.22;;;2.61;53.69
23953;BME280;12163;49.316;6.092;2023-02-26T09:01:04;99605.88;;;2.69;53.37
23953;BME280;12163;49.316;6.092;2023-02-26T09:03:30;99604.81;;;2.82;53.61
23953;BME280;12163;49.316;6.092;2023-02-26T09:05:57;99602.59;;;2.90;53.50
23953;BME280;12163;49.316;6.092;2023-02-26T09:08:24;99599.69;;;2.92;51.89
23953;BME280;12163;49.316;6.092;2023-02-26T09:10:50;99608.03;;;2.95;51.94
23953;BME280;12163;49.316;6.092;2023-02-26T09:13:17;99619.25;;;2.97;52.27
23953;BME280;12163;49.316;6.092;2023-02-26T09:15:44;99616.59;;;2.97;51.64
23953;BME280;12163;49.316;6.092;2023-02-26T09:18:10;99608.94;;;3.01;51.90
23953;BME280;12163;49.316;6.092;2023-02-26T09:20:42;99618.31;;;3.03;51.84
23953;BME280;12163;49.316;6.092;2023-02-26T09:23:10;99624.31;;;3.10;51.50
23953;BME280;12163;49.316;6.092;2023-02-26T09:25:37;99622.09;;;3.19;51.69
23953;BME280;12163;49.316;6.092;2023-02-26T09:28:04;99641.22;;;3.27;51.08
23953;BME280;12163;49.316;6.092;2023-02-26T09:30:31;99638.53;;;3.27;50.38
23953;BME280;12163;49.316;6.092;2023-02-26T09:32:58;99622.78;;;3.26;50.84
23953;BME280;12163;49.316;6.092;2023-02-26T09:35:24;99633.78;;;3.29;50.65
23953;BME280;12163;49.316;6.092;2023-02-26T09:37:51;99648.03;;;3.34;50.40
23953;BME280;12163;49.316;6.092;2023-02-26T09:40:24;99647.69;;;3.31;50.17
23953;BME280;12163;49.316;6.092;2023-02-26T09:42:59;99643.97;;;3.32;50.58
23953;BME280;12163;49.316;6.092;2023-02-26T09:45:32;99635.56;;;3.24;50.31
23953;BME280;12163;49.316;6.092;2023-02-26T09:48:03;99648.91;;;3.12;50.23
23953;BME280;12163;49.316;6.092;2023-02-26T09:50:41;99645.66;;;3.10;51.10
23953;BME280;12163;49.316;6.092;2023-02-26T09:53:36;99658.06;;;3.05;51.23
23953;BME280;12163;49.316;6.092;2023-02-26T09:56:20;99665.81;;;3.06;50.74
23953;BME280;12163;49.316;6.092;2023-02-26T09:58:49;99662.00;;;3.14;50.20
23953;BME280;12163;49.316;6.092;2023-02-26T10:04:59;99659.09;;;3.15;50.30
23953;BME280;12163;49.316;6.092;2023-02-26T10:12:18;99662.25;;;3.51;49.93
23953;BME280;12163;49.316;6.092;2023-02-26T10:14:57;99672.81;;;3.58;49.95
23953;BME280;12163;49.316;6.092;2023-02-26T10:23:23;99668.13;;;3.93;48.58
23953;BME280;12163;49.316;6.092;2023-02-26T10:25:57;99674.22;;;4.05;48.15
23953;BME280;12163;49.316;6.092;2023-02-26T10:28:52;99683.44;;;4.14;48.52
23953;BME280;12163;49.316;6.092;2023-02-26T10:39:34;99684.56;;;4.62;44.49
23953;BME280;12163;49.316;6.092;2023-02-26T10:42:11;99684.06;;;4.65;45.53
23953;BME280;12163;49.316;6.092;2023-02-26T10:44:48;99695.38;;;4.72;45.36
23953;BME280;12163;49.316;6.092;2023-02-26T10:50:12;99696.50;;;4.76;45.02
23953;BME280;12163;49.316;6.092;2023-02-26T10:52:41;99693.84;;;4.60;43.73
23953;BME280;12163;49.316;6.092;2023-02-26T10:58:25;99685.50;;;4.40;44.63
23953;BME280;12163;49.316;6.092;2023-02-26T11:00:54;99677.75;;;4.55;44.43
23953;BME280;12163;49.316;6.092;2023-02-26T11:03:33;99687.06;;;4.69;44.24
23953;BME280;12163;49.316;6.092;2023-02-26T11:06:02;99694.09;;;4.75;44.25
23953;BME280;12163;49.316;6.092;2023-02-26T11:08:37;99687.78;;;4.81;43.04
23953;BME280;12163;49.316;6.092;2023-02-26T11:11:05;99680.72;;;4.91;43.43
23953;BME280;12163;49.316;6.092;2023-02-26T11:13:34;99696.66;;;5.02;42.60
23953;BME280;12163;49.316;6.092;2023-02-26T11:16:11;99686.97;;;4.80;42.44
23953;BME280;12163;49.316;6.092;2023-02-26T11:18:42;99696.03;;;4.63;43.47
23953;BME280;12163;49.316;6.092;2023-02-26T11:21:18;99695.69;;;4.43;43.49
23953;BME280;12163;49.316;6.092;2023-02-26T11:23:45;99709.13;;;4.31;43.67
23953;BME280;12163;49.316;6.092;2023-02-26T11:26:17;99706.53;;;4.20;43.33
23953;BME280;12163;49.316;6.092;2023-02-26T11:28:48;99703.53;;;4.16;43.87
23953;BME280;12163;49.316;6.092;2023-02-26T11:31:18;99710.00;;;4.20;44.02
23953;BME280;12163;49.316;6.092;2023-02-26T11:33:59;99706.84;;;4.23;44.48
23953;BME280;12163;49.316;6.092;2023-02-26T11:36:30;99713.19;;;4.34;44.20
23953;BME280;12163;49.316;6.092;2023-02-26T11:39:02;99702.50;;;4.34;43.25
23953;BME280;12163;49.316;6.092;2023-02-26T11:41:35;99699.91;;;4.39;43.37
23953;BME280;12163;49.316;6.092;2023-02-26T11:44:09;99692.66;;;4.51;43.32
23953;BME280;12163;49.316;6.092;2023-02-26T11:46:45;99689.56;;;4.59;43.50
23953;BME280;12163;49.316;6.092;2023-02-26T11:49:15;99699.59;;;4.68;43.00
23953;BME280;12163;49.316;6.092;2023-02-26T11:51:45;99682.44;;;4.81;43.35
23953;BME280;12163;49.316;6.092;2023-02-26T11:54:22;99678.22;;;4.85;42.74
23953;BME280;12163;49.316;6.092;2023-02-26T11:56:49;99684.13;;;4.87;43.07
23953;BME280;12163;49.316;6.092;2023-02-26T12:01:44;99680.47;;;4.76;42.01
23953;BME280;12163;49.316;6.092;2023-02-26T12:04:13;99686.00;;;4.70;42.38
23953;BME280;12163;49.316;6.092;2023-02-26T12:06:40;99689.91;;;4.62;42.69
23953;BME280;12163;49.316;6.092;2023-02-26T12:09:11;99681.16;;;4.67;42.74
23953;BME280;12163;49.316;6.092;2023-02-26T12:11:56;99671.50;;;4.82;42.74
23953;BME280;12163;49.316;6.092;2023-02-26T12:22:43;99681.72;;;5.23;41.78
23953;BME280;12163;49.316;6.092;2023-02-26T12:39:03;99667.13;;;5.14;42.48
23953;BME280;12163;49.316;6.092;2023-02-26T13:16:05;99680.91;;;5.87;40.64
23953;BME280;12163;49.316;6.092;2023-02-26T13:21:20;99692.63;;;5.59;40.39
23953;BME280;12163;49.316;6.092;2023-02-26T13:24:00;99697.84;;;5.49;41.56
23953;BME280;12163;49.316;6.092;2023-02-26T13:26:31;99691.31;;;5.62;41.20
23953;BME280;12163;49.316;6.092;2023-02-26T13:29:12;99679.16;;;5.76;40.55
23953;BME280;12163;49.316;6.092;2023-02-26T13:34:23;99690.06;;;5.69;40.13
23953;BME280;12163;49.316;6.092;2023-02-26T13:36:52;99691.94;;;5.90;40.17
23953;BME280;12163;49.316;6.092;2023-02-26T13:39:54;99683.81;;;6.33;39.18
23953;BME280;12163;49.316;6.092;2023-02-26T13:42:57;99686.97;;;6.57;39.21
23953;BME280;12163;49.316;6.092;2023-02-26T13:46:11;99687.78;;;6.98;38.84
23953;BME280;12163;49.316;6.092;2023-02-26T14:10:24;99711.69;;;5.84;38.64
23953;BME280;12163;49.316;6.092;2023-02-26T14:13:21;99706.63;;;6.67;38.38
23953;BME280;12163;49.316;6.092;2023-02-26T14:18:48;99698.56;;;8.11;35.55
23953;BME280;12163;49.316;6.092;2023-02-26T14:26:48;99712.88;;;7.14;35.75
23953;BME280;12163;49.316;6.092;2023-02-26T14:29:35;99710.22;;;7.19;35.20
23953;BME280;12163;49.316;6.092;2023-02-26T14:34:58;99714.13;;;7.01;35.95
23953;BME280;12163;49.316;6.092;2023-02-26T14:37:29;99726.44;;;7.39;35.50
23953;BME280;12163;49.316;6.092;2023-02-26T14:40:19;99719.16;;;7.86;34.63
23953;BME280;12163;49.316;6.092;2023-02-26T14:42:57;99715.78;;;8.25;33.62
23953;BME280;12163;49.316;6.092;2023-02-26T14:45:44;99712.84;;;8.36;34.31
23953;BME280;12163;49.316;6.092;2023-02-26T14:48:21;99725.75;;;8.25;33.31
23953;BME280;12163;49.316;6.092;2023-02-26T15:02:29;99735.72;;;6.85;35.38
23953;BME280;12163;49.316;6.092;2023-02-26T15:05:16;99733.72;;;6.70;35.40
23953;BME280;12163;49.316;6.092;2023-02-26T15:19:17;99742.50;;;6.08;36.46
23953;BME280;12163;49.316;6.092;2023-02-26T15:24:40;99758.44;;;5.77;37.06
23953;BME280;12163;49.316;6.092;2023-02-26T15:27:12;99761.34;;;5.75;37.17
23953;BME280;12163;49.316;6.092;2023-02-26T15:29:40;99762.59;;;5.68;36.74
23953;BME280;12163;49.316;6.092;2023-02-26T15:32:28;99770.81;;;5.61;37.43
23953;BME280;12163;49.316;6.092;2023-02-26T15:35:26;99752.19;;;5.50;36.71
23953;BME280;12163;49.316;6.092;2023-02-26T15:37:56;99766.63;;;5.49;37.27
23953;BME280;12163;49.316;6.092;2023-02-26T15:40:24;99760.44;;;5.48;37.82
23953;BME280;12163;49.316;6.092;2023-02-26T15:42:54;99763.63;;;5.45;38.44
23953;BME280;12163;49.316;6.092;2023-02-26T15:47:59;99774.09;;;5.47;40.27
23953;BME280;12163;49.316;6.092;2023-02-26T15:50:31;99787.00;;;5.33;40.68
23953;BME280;12163;49.316;6.092;2023-02-26T15:53:01;99773.97;;;5.20;40.58
23953;BME280;12163;49.316;6.092;2023-02-26T15:55:33;99776.81;;;5.14;40.97
23953;BME280;12163;49.316;6.092;2023-02-26T15:58:02;99772.94;;;5.05;41.17
23953;BME280;12163;49.316;6.092;2023-02-26T16:00:33;99775.84;;;5.03;41.07
23953;BME280;12163;49.316;6.092;2023-02-26T16:03:00;99775.28;;;5.01;41.63
23953;BME280;12163;49.316;6.092;2023-02-26T16:05:28;99787.91;;;5.06;41.86
23953;BME280;12163;49.316;6.092;2023-02-26T16:07:55;99789.88;;;5.10;41.14
23953;BME280;12163;49.316;6.092;2023-02-26T16:10:32;99793.28;;;5.06;41.24
23953;BME280;12163;49.316;6.092;2023-02-26T16:13:00;99790.53;;;5.01;41.25
23953;BME280;12163;49.316;6.092;2023-02-26T16:15:37;99796.59;;;4.96;41.42
23953;BME280;12163;49.316;6.092;2023-02-26T16:18:07;99799.75;;;4.93;41.20
23953;BME280;12163;49.316;6.092;2023-02-26T16:20:42;99807.09;;;4.87;40.79
23953;BME280;12163;49.316;6.092;2023-02-26T16:26:10;99818.97;;;4.63;40.91
23953;BME280;12163;49.316;6.092;2023-02-26T16:28:41;99811.69;;;4.58;41.24
23953;BME280;12163;49.316;6.092;2023-02-26T16:31:19;99821.47;;;4.53;41.18
23953;BME280;12163;49.316;6.092;2023-02-26T16:33:53;99814.44;;;4.47;41.33
23953;BME280;12163;49.316;6.092;2023-02-26T16:36:22;99822.31;;;4.42;41.30
23953;BME280;12163;49.316;6.092;2023-02-26T16:38:58;99810.97;;;4.35;41.52
23953;BME280;12163;49.316;6.092;2023-02-26T16:41:29;99825.88;;;4.31;41.41
23953;BME280;12163;49.316;6.092;2023-02-26T16:43:58;99823.41;;;4.29;41.90
23953;BME280;12163;49.316;6.092;2023-02-26T16:46:30;99836.94;;;4.23;42.15
23953;BME280;12163;49.316;6.092;2023-02-26T16:49:02;99838.34;;;4.14;41.81